sensor_id;sensor_type;location;lat;lon;timestamp;pressure;altitude;pressure_sealevel;temperature;humidity
72716;BME280;60830;64.560;40.542;2022-07-10T00:01:23;101348.19;;;14.49;100.00
72716;BME280;60830;64.560;40.542;2022-07-10T00:03:50;101348.22;;;14.43;100.00
72716;BME280;60830;64.560;40.542;2022-07-10T00:06:17;101340.22;;;14.40;100.00
72716;BME280;60830;64.560;40.542;2022-07-10T00:08:43;101340.22;;;14.38;100.00
72716;BME280;60830;64.560;40.542;2022-07-10T00:11:10;101343.75;;;14.40;100.00
72716;BME280;60830;64.560;40.542;2022-07-10T00:13:37;101342.00;;;14.42;100.00
72716;BME280;60830;64.560;40.542;2022-07-10T00:16:03;101335.78;;;14.43;100.00
72716;BME280;60830;64.560;40.542;2022-07-10T00:18:30;101341.09;;;14.43;100.00
72716;BME280;60830;64.560;40.542;2022-07-10T00:20:57;101347.31;;;14.41;100.00
72716;BME280;60830;64.560;40.542;2022-07-10T00:23:23;101345.56;;;14.38;100.00
72716;BME280;60830;64.560;40.542;2022-07-10T00:25:50;101347.31;;;14.36;100.00
72716;BME280;60830;64.560;40.542;2022-07-10T00:28:16;101342.84;;;14.33;100.00
72716;BME280;60830;64.560;40.542;2022-07-10T00:30:42;101344.63;;;14.31;100.00
72716;BME280;60830;64.560;40.542;2022-07-10T00:33:09;101337.53;;;14.27;100.00
72716;BME280;60830;64.560;40.542;2022-07-10T00:35:35;101346.38;;;14.26;100.00
72716;BME280;60830;64.560;40.542;2022-07-10T00:38:02;101343.72;;;14.26;100.00
72716;BME280;60830;64.560;40.542;2022-07-10T00:40:29;101343.72;;;14.25;100.00
72716;BME280;60830;64.560;40.542;2022-07-10T00:42:55;101344.63;;;14.25;100.00
72716;BME280;60830;64.560;40.542;2022-07-10T00:45:22;101351.69;;;14.25;100.00
72716;BME280;60830;64.560;40.542;2022-07-10T00:47:48;101347.28;;;14.30;100.00
72716;BME280;60830;64.560;40.542;2022-07-10T00:50:15;101342.91;;;14.58;100.00
72716;BME280;60830;64.560;40.542;2022-07-10T00:52:41;101355.38;;;14.98;100.00
72716;BME280;60830;64.560;40.542;2022-07-10T00:55:09;101364.19;;;15.39;100.00
72716;BME280;60830;64.560;40.542;2022-07-10T00:57:36;101357.88;;;15.75;100.00
72716;BME280;60830;64.560;40.542;2022-07-10T01:00:04;101356.91;;;15.99;100.00
72716;BME280;60830;64.560;40.542;2022-07-10T01:02:31;101364.75;;;16.26;100.00
72716;BME280;60830;64.560;40.542;2022-07-10T01:04:57;101368.22;;;16.43;100.00
72716;BME280;60830;64.560;40.542;2022-07-10T01:07:24;101368.97;;;16.64;100.00
72716;BME280;60830;64.560;40.542;2022-07-10T01:09:51;101373.25;;;16.91;100.00
72716;BME280;60830;64.560;40.542;2022-07-10T01:12:18;101373.13;;;17.06;100.00
72716;BME280;60830;64.560;40.542;2022-07-10T01:14:46;101374.72;;;17.26;100.00
72716;BME280;60830;64.560;40.542;2022-07-10T01:17:13;101372.66;;;17.51;100.00
72716;BME280;60830;64.560;40.542;2022-07-10T01:19:40;101371.59;;;17.69;100.00
72716;BME280;60830;64.560;40.542;2022-07-10T01:22:06;101377.63;;;17.85;100.00
72716;BME280;60830;64.560;40.542;2022-07-10T01:24:33;101368.63;;;17.94;100.00
72716;BME280;60830;64.560;40.542;2022-07-10T01:26:59;101367.56;;;18.10;100.00
72716;BME280;60830;64.560;40.542;2022-07-10T01:29:26;101366.31;;;18.35;100.00
72716;BME280;60830;64.560;40.542;2022-07-10T01:31:53;101367.88;;;18.50;100.00
72716;BME280;60830;64.560;40.542;2022-07-10T01:34:19;101369.44;;;18.65;100.00
72716;BME280;60830;64.560;40.542;2022-07-10T01:36:46;101376.22;;;18.90;100.00
72716;BME280;60830;64.560;40.542;2022-07-10T01:39:13;101381.34;;;19.04;100.00
72716;BME280;60830;64.560;40.542;2022-07-10T01:41:40;101381.84;;;19.25;100.00
72716;BME280;60830;64.560;40.542;2022-07-10T01:44:06;101375.13;;;19.51;100.00
72716;BME280;60830;64.560;40.542;2022-07-10T01:46:33;101375.53;;;19.76;100.00
72716;BME280;60830;64.560;40.542;2022-07-10T01:48:59;101373.50;;;19.90;100.00
72716;BME280;60830;64.560;40.542;2022-07-10T01:51:26;101379.38;;;20.08;100.00
72716;BME280;60830;64.560;40.542;2022-07-10T01:53:52;101380.84;;;20.23;99.31
72716;BME280;60830;64.560;40.542;2022-07-10T01:56:19;101375.16;;;20.38;97.75
72716;BME280;60830;64.560;40.542;2022-07-10T01:58:45;101375.59;;;20.57;95.96
72716;BME280;60830;64.560;40.542;2022-07-10T02:01:12;101377.66;;;20.85;94.59
72716;BME280;60830;64.560;40.542;2022-07-10T02:03:38;101385.88;;;21.13;92.31
72716;BME280;60830;64.560;40.542;2022-07-10T02:06:24;101385.97;;;21.43;88.80
72716;BME280;60830;64.560;40.542;2022-07-10T02:08:50;101378.19;;;21.67;86.94
72716;BME280;60830;64.560;40.542;2022-07-10T02:11:17;101381.38;;;21.81;85.55
72716;BME280;60830;64.560;40.542;2022-07-10T02:13:43;101383.75;;;21.92;84.56
72716;BME280;60830;64.560;40.542;2022-07-10T02:16:10;101374.78;;;21.92;84.34
72716;BME280;60830;64.560;40.542;2022-07-10T02:18:37;101383.72;;;21.94;84.18
72716;BME280;60830;64.560;40.542;2022-07-10T02:21:05;101379.50;;;22.15;83.73
72716;BME280;60830;64.560;40.542;2022-07-10T02:23:31;101379.22;;;22.24;83.80
72716;BME280;60830;64.560;40.542;2022-07-10T02:25:58;101386.84;;;22.39;82.72
72716;BME280;60830;64.560;40.542;2022-07-10T02:28:24;101380.94;;;22.56;82.07
72716;BME280;60830;64.560;40.542;2022-07-10T02:30:51;101390.22;;;22.74;81.33
72716;BME280;60830;64.560;40.542;2022-07-10T02:33:18;101389.31;;;23.02;79.85
72716;BME280;60830;64.560;40.542;2022-07-10T02:35:44;101394.09;;;23.21;79.00
72716;BME280;60830;64.560;40.542;2022-07-10T02:38:11;101398.31;;;23.55;78.26
72716;BME280;60830;64.560;40.542;2022-07-10T02:40:40;101389.81;;;23.66;76.73
72716;BME280;60830;64.560;40.542;2022-07-10T02:43:07;101393.41;;;23.91;76.25
72716;BME280;60830;64.560;40.542;2022-07-10T02:45:33;101395.63;;;24.04;74.70
72716;BME280;60830;64.560;40.542;2022-07-10T02:48:00;101404.84;;;24.22;73.76
72716;BME280;60830;64.560;40.542;2022-07-10T02:50:26;101407.06;;;24.34;73.65
72716;BME280;60830;64.560;40.542;2022-07-10T02:52:53;101410.19;;;24.23;74.07
72716;BME280;60830;64.560;40.542;2022-07-10T02:55:19;101407.50;;;24.23;73.73
72716;BME280;60830;64.560;40.542;2022-07-10T02:57:46;101410.66;;;24.11;74.61
72716;BME280;60830;64.560;40.542;2022-07-10T03:00:12;101404.78;;;24.23;73.09
72716;BME280;60830;64.560;40.542;2022-07-10T03:02:39;101408.16;;;24.52;72.71
72716;BME280;60830;64.560;40.542;2022-07-10T03:05:06;101401.13;;;24.48;72.09
72716;BME280;60830;64.560;40.542;2022-07-10T03:07:33;101405.19;;;24.82;71.84
72716;BME280;60830;64.560;40.542;2022-07-10T03:09:59;101411.66;;;25.43;69.09
72716;BME280;60830;64.560;40.542;2022-07-10T03:12:26;101404.16;;;25.49;67.29
72716;BME280;60830;64.560;40.542;2022-07-10T03:14:52;101399.22;;;24.74;67.52
72716;BME280;60830;64.560;40.542;2022-07-10T03:17:19;101403.28;;;24.38;68.86
72716;BME280;60830;64.560;40.542;2022-07-10T03:19:45;101407.47;;;24.00;71.26
72716;BME280;60830;64.560;40.542;2022-07-10T03:22:12;101405.72;;;24.22;71.15
72716;BME280;60830;64.560;40.542;2022-07-10T03:24:38;101404.69;;;24.72;70.31
72716;BME280;60830;64.560;40.542;2022-07-10T03:27:05;101404.63;;;24.96;67.92
72716;BME280;60830;64.560;40.542;2022-07-10T03:29:31;101406.56;;;24.70;67.46
72716;BME280;60830;64.560;40.542;2022-07-10T03:31:58;101407.25;;;24.29;68.25
72716;BME280;60830;64.560;40.542;2022-07-10T03:34:24;101408.28;;;24.25;66.97
72716;BME280;60830;64.560;40.542;2022-07-10T03:36:51;101409.56;;;24.62;66.88
72716;BME280;60830;64.560;40.542;2022-07-10T03:39:18;101417.00;;;24.79;65.97
72716;BME280;60830;64.560;40.542;2022-07-10T03:41:44;101414.50;;;24.51;65.71
72716;BME280;60830;64.560;40.542;2022-07-10T03:44:11;101414.53;;;24.27;66.56
72716;BME280;60830;64.560;40.542;2022-07-10T03:46:37;101419.88;;;23.80;67.53
72716;BME280;60830;64.560;40.542;2022-07-10T03:49:04;101417.59;;;23.42;68.58
72716;BME280;60830;64.560;40.542;2022-07-10T03:51:30;101423.69;;;23.22;69.75
72716;BME280;60830;64.560;40.542;2022-07-10T03:53:57;101410.66;;;22.82;72.02
72716;BME280;60830;64.560;40.542;2022-07-10T03:56:23;101421.81;;;22.69;72.61
72716;BME280;60830;64.560;40.542;2022-07-10T03:59:08;101417.09;;;22.48;73.94
72716;BME280;60830;64.560;40.542;2022-07-10T04:01:35;101419.63;;;22.22;76.09
72716;BME280;60830;64.560;40.542;2022-07-10T04:04:01;101428.75;;;22.17;75.99
72716;BME280;60830;64.560;40.542;2022-07-10T04:06:28;101433.28;;;21.85;78.37
72716;BME280;60830;64.560;40.542;2022-07-10T04:08:55;101430.47;;;21.57;80.92
72716;BME280;60830;64.560;40.542;2022-07-10T04:11:21;101429.97;;;21.39;83.17
72716;BME280;60830;64.560;40.542;2022-07-10T04:13:48;101430.34;;;21.25;84.00
72716;BME280;60830;64.560;40.542;2022-07-10T04:16:14;101431.22;;;21.26;84.17
72716;BME280;60830;64.560;40.542;2022-07-10T04:18:41;101436.81;;;21.18;86.22
72716;BME280;60830;64.560;40.542;2022-07-10T04:21:08;101431.31;;;21.23;86.04
72716;BME280;60830;64.560;40.542;2022-07-10T04:23:34;101431.47;;;21.16;88.45
72716;BME280;60830;64.560;40.542;2022-07-10T04:26:01;101434.13;;;21.18;89.93
72716;BME280;60830;64.560;40.542;2022-07-10T04:28:27;101442.59;;;21.37;88.59
72716;BME280;60830;64.560;40.542;2022-07-10T04:30:54;101432.63;;;21.42;88.00
72716;BME280;60830;64.560;40.542;2022-07-10T04:33:20;101440.22;;;21.61;86.77
72716;BME280;60830;64.560;40.542;2022-07-10T04:35:47;101444.31;;;21.74;84.50
72716;BME280;60830;64.560;40.542;2022-07-10T04:38:13;101444.63;;;21.96;83.24
72716;BME280;60830;64.560;40.542;2022-07-10T04:40:40;101430.66;;;22.73;80.24
72716;BME280;60830;64.560;40.542;2022-07-10T04:43:06;101443.63;;;24.19;76.78
72716;BME280;60830;64.560;40.542;2022-07-10T04:45:33;101446.34;;;25.74;69.22
72716;BME280;60830;64.560;40.542;2022-07-10T04:47:59;101444.03;;;27.01;63.81
72716;BME280;60830;64.560;40.542;2022-07-10T04:50:26;101447.56;;;28.09;60.11
72716;BME280;60830;64.560;40.542;2022-07-10T04:52:52;101441.94;;;27.78;57.14
72716;BME280;60830;64.560;40.542;2022-07-10T04:55:18;101441.38;;;28.06;56.30
72716;BME280;60830;64.560;40.542;2022-07-10T04:57:46;101436.25;;;28.50;54.88
72716;BME280;60830;64.560;40.542;2022-07-10T05:00:13;101439.16;;;28.13;54.09
72716;BME280;60830;64.560;40.542;2022-07-10T05:02:40;101432.41;;;27.87;54.98
72716;BME280;60830;64.560;40.542;2022-07-10T05:05:07;101436.75;;;26.84;56.14
72716;BME280;60830;64.560;40.542;2022-07-10T05:07:34;101435.13;;;26.42;56.85
72716;BME280;60830;64.560;40.542;2022-07-10T05:10:00;101440.19;;;25.91;58.19
72716;BME280;60830;64.560;40.542;2022-07-10T05:12:27;101439.16;;;25.32;60.15
72716;BME280;60830;64.560;40.542;2022-07-10T05:14:53;101439.72;;;25.18;60.76
72716;BME280;60830;64.560;40.542;2022-07-10T05:17:20;101443.25;;;25.20;61.26
72716;BME280;60830;64.560;40.542;2022-07-10T05:19:47;101445.47;;;25.94;59.62
72716;BME280;60830;64.560;40.542;2022-07-10T05:22:13;101443.28;;;26.80;58.09
72716;BME280;60830;64.560;40.542;2022-07-10T05:24:40;101446.84;;;27.00;56.05
72716;BME280;60830;64.560;40.542;2022-07-10T05:27:06;101449.88;;;27.11;55.40
72716;BME280;60830;64.560;40.542;2022-07-10T05:29:33;101447.09;;;26.76;55.66
72716;BME280;60830;64.560;40.542;2022-07-10T05:31:59;101458.94;;;26.35;56.69
72716;BME280;60830;64.560;40.542;2022-07-10T05:34:26;101449.56;;;26.43;56.55
72716;BME280;60830;64.560;40.542;2022-07-10T05:36:53;101451.47;;;26.41;56.55
72716;BME280;60830;64.560;40.542;2022-07-10T05:39:19;101448.19;;;26.53;56.67
72716;BME280;60830;64.560;40.542;2022-07-10T05:41:46;101450.88;;;26.91;56.24
72716;BME280;60830;64.560;40.542;2022-07-10T05:44:12;101452.03;;;27.22;55.04
72716;BME280;60830;64.560;40.542;2022-07-10T05:46:39;101456.75;;;26.63;55.60
72716;BME280;60830;64.560;40.542;2022-07-10T05:49:05;101461.38;;;26.02;57.69
72716;BME280;60830;64.560;40.542;2022-07-10T05:51:32;101458.72;;;25.39;59.01
72716;BME280;60830;64.560;40.542;2022-07-10T05:53:58;101453.69;;;25.07;58.96
72716;BME280;60830;64.560;40.542;2022-07-10T05:56:25;101451.28;;;24.99;59.10
72716;BME280;60830;64.560;40.542;2022-07-10T05:58:52;101460.25;;;25.02;59.09
72716;BME280;60830;64.560;40.542;2022-07-10T06:01:22;101466.84;;;25.59;58.36
72716;BME280;60830;64.560;40.542;2022-07-10T06:03:49;101462.53;;;25.76;57.34
72716;BME280;60830;64.560;40.542;2022-07-10T06:06:15;101460.13;;;26.09;56.65
72716;BME280;60830;64.560;40.542;2022-07-10T06:08:43;101458.16;;;25.92;56.12
72716;BME280;60830;64.560;40.542;2022-07-10T06:11:10;101459.06;;;26.13;56.47
72716;BME280;60830;64.560;40.542;2022-07-10T06:13:37;101455.94;;;26.42;55.69
72716;BME280;60830;64.560;40.542;2022-07-10T06:16:05;101457.59;;;27.38;54.34
72716;BME280;60830;64.560;40.542;2022-07-10T06:18:31;101460.41;;;28.22;50.99
72716;BME280;60830;64.560;40.542;2022-07-10T06:20:58;101467.16;;;28.65;50.31
72716;BME280;60830;64.560;40.542;2022-07-10T06:23:24;101457.41;;;27.76;50.91
72716;BME280;60830;64.560;40.542;2022-07-10T06:25:51;101450.06;;;26.89;51.76
72716;BME280;60830;64.560;40.542;2022-07-10T06:28:18;101461.34;;;26.23;53.76
72716;BME280;60830;64.560;40.542;2022-07-10T06:30:45;101448.78;;;25.80;55.21
72716;BME280;60830;64.560;40.542;2022-07-10T06:33:14;101455.88;;;25.42;56.15
72716;BME280;60830;64.560;40.542;2022-07-10T06:35:41;101450.47;;;25.20;57.11
72716;BME280;60830;64.560;40.542;2022-07-10T06:38:07;101455.50;;;25.29;56.61
72716;BME280;60830;64.560;40.542;2022-07-10T06:40:36;101456.41;;;25.07;57.10
72716;BME280;60830;64.560;40.542;2022-07-10T06:43:03;101459.03;;;25.09;56.80
72716;BME280;60830;64.560;40.542;2022-07-10T06:45:31;101464.25;;;25.36;55.88
72716;BME280;60830;64.560;40.542;2022-07-10T06:47:58;101459.78;;;25.96;54.91
72716;BME280;60830;64.560;40.542;2022-07-10T06:50:30;101466.31;;;26.32;51.78
72716;BME280;60830;64.560;40.542;2022-07-10T06:52:58;101460.19;;;26.47;50.60
72716;BME280;60830;64.560;40.542;2022-07-10T06:55:25;101450.19;;;27.42;49.37
72716;BME280;60830;64.560;40.542;2022-07-10T06:57:52;101463.28;;;28.69;47.58
72716;BME280;60830;64.560;40.542;2022-07-10T07:00:19;101462.06;;;29.67;45.45
72716;BME280;60830;64.560;40.542;2022-07-10T07:02:46;101455.75;;;30.82;44.19
72716;BME280;60830;64.560;40.542;2022-07-10T07:05:13;101457.59;;;30.81;42.19
72716;BME280;60830;64.560;40.542;2022-07-10T07:07:40;101462.44;;;31.18;42.09
72716;BME280;60830;64.560;40.542;2022-07-10T07:10:08;101460.53;;;31.99;41.14
72716;BME280;60830;64.560;40.542;2022-07-10T07:12:35;101461.38;;;32.12;40.25
72716;BME280;60830;64.560;40.542;2022-07-10T07:15:01;101458.56;;;31.35;40.34
72716;BME280;60830;64.560;40.542;2022-07-10T07:17:28;101467.53;;;32.29;38.80
72716;BME280;60830;64.560;40.542;2022-07-10T07:20:12;101454.63;;;32.31;38.92
72716;BME280;60830;64.560;40.542;2022-07-10T07:22:57;101452.25;;;32.76;37.56
72716;BME280;60830;64.560;40.542;2022-07-10T07:25:36;101468.84;;;32.10;37.91
72716;BME280;60830;64.560;40.542;2022-07-10T07:28:04;101440.91;;;32.57;36.24
72716;BME280;60830;64.560;40.542;2022-07-10T07:30:30;101467.44;;;32.67;35.63
72716;BME280;60830;64.560;40.542;2022-07-10T07:32:57;101460.88;;;32.07;36.32
72716;BME280;60830;64.560;40.542;2022-07-10T07:35:23;101468.25;;;30.72;37.12
72716;BME280;60830;64.560;40.542;2022-07-10T07:37:51;101459.34;;;31.37;37.80
72716;BME280;60830;64.560;40.542;2022-07-10T07:40:21;101463.94;;;31.64;36.46
72716;BME280;60830;64.560;40.542;2022-07-10T07:42:52;101466.88;;;32.38;36.20
72716;BME280;60830;64.560;40.542;2022-07-10T07:45:23;101461.84;;;33.06;34.98
72716;BME280;60830;64.560;40.542;2022-07-10T07:47:52;101461.34;;;33.01;34.92
72716;BME280;60830;64.560;40.542;2022-07-10T07:50:21;101468.06;;;33.57;34.49
72716;BME280;60830;64.560;40.542;2022-07-10T07:52:49;101471.03;;;33.65;34.30
72716;BME280;60830;64.560;40.542;2022-07-10T07:55:17;101478.34;;;32.43;34.83
72716;BME280;60830;64.560;40.542;2022-07-10T07:57:44;101462.56;;;32.97;35.18
72716;BME280;60830;64.560;40.542;2022-07-10T08:00:13;101461.53;;;33.46;33.64
72716;BME280;60830;64.560;40.542;2022-07-10T08:02:40;101463.97;;;33.02;34.12
72716;BME280;60830;64.560;40.542;2022-07-10T08:05:07;101463.91;;;34.09;33.35
72716;BME280;60830;64.560;40.542;2022-07-10T08:10:02;101467.75;;;34.86;32.50
72716;BME280;60830;64.560;40.542;2022-07-10T08:12:29;101466.78;;;33.96;32.32
72716;BME280;60830;64.560;40.542;2022-07-10T08:14:56;101457.38;;;33.29;33.86
72716;BME280;60830;64.560;40.542;2022-07-10T08:17:25;101467.31;;;32.32;33.52
72716;BME280;60830;64.560;40.542;2022-07-10T08:19:51;101464.56;;;32.06;33.79
72716;BME280;60830;64.560;40.542;2022-07-10T08:22:18;101471.38;;;30.37;35.64
72716;BME280;60830;64.560;40.542;2022-07-10T08:24:44;101462.06;;;30.83;34.84
72716;BME280;60830;64.560;40.542;2022-07-10T08:27:11;101469.19;;;31.40;34.19
72716;BME280;60830;64.560;40.542;2022-07-10T08:29:38;101470.38;;;32.27;33.17
72716;BME280;60830;64.560;40.542;2022-07-10T08:32:05;101462.63;;;32.34;33.49
72716;BME280;60830;64.560;40.542;2022-07-10T08:34:31;101454.56;;;31.54;33.85
72716;BME280;60830;64.560;40.542;2022-07-10T08:36:59;101459.25;;;31.39;33.87
72716;BME280;60830;64.560;40.542;2022-07-10T08:39:25;101466.09;;;30.62;34.48
72716;BME280;60830;64.560;40.542;2022-07-10T08:41:52;101468.69;;;30.93;34.51
72716;BME280;60830;64.560;40.542;2022-07-10T08:44:18;101463.81;;;31.38;33.76
72716;BME280;60830;64.560;40.542;2022-07-10T08:46:45;101461.84;;;32.32;33.57
72716;BME280;60830;64.560;40.542;2022-07-10T08:49:12;101454.94;;;31.62;34.14
72716;BME280;60830;64.560;40.542;2022-07-10T08:51:54;101456.38;;;31.93;33.63
72716;BME280;60830;64.560;40.542;2022-07-10T08:54:23;101465.66;;;31.91;33.33
72716;BME280;60830;64.560;40.542;2022-07-10T08:56:51;101455.50;;;32.44;33.55
72716;BME280;60830;64.560;40.542;2022-07-10T08:59:19;101461.66;;;32.59;32.84
72716;BME280;60830;64.560;40.542;2022-07-10T09:01:48;101457.34;;;32.31;34.38
72716;BME280;60830;64.560;40.542;2022-07-10T09:04:17;101458.44;;;33.40;33.10
72716;BME280;60830;64.560;40.542;2022-07-10T09:06:45;101459.84;;;34.37;32.61
72716;BME280;60830;64.560;40.542;2022-07-10T09:09:11;101471.19;;;34.33;31.75
72716;BME280;60830;64.560;40.542;2022-07-10T09:11:39;101457.19;;;33.44;32.23
72716;BME280;60830;64.560;40.542;2022-07-10T09:14:14;101461.56;;;33.58;31.51
72716;BME280;60830;64.560;40.542;2022-07-10T09:16:42;101453.16;;;32.64;33.08
72716;BME280;60830;64.560;40.542;2022-07-10T09:19:27;101459.31;;;33.51;32.78
72716;BME280;60830;64.560;40.542;2022-07-10T09:24:26;101456.94;;;31.98;34.37
72716;BME280;60830;64.560;40.542;2022-07-10T09:27:00;101455.50;;;31.67;34.60
72716;BME280;60830;64.560;40.542;2022-07-10T09:29:30;101459.78;;;32.10;33.97
72716;BME280;60830;64.560;40.542;2022-07-10T09:32:00;101458.63;;;32.64;34.29
72716;BME280;60830;64.560;40.542;2022-07-10T09:39:56;101471.41;;;30.93;34.38
72716;BME280;60830;64.560;40.542;2022-07-10T09:42:27;101456.91;;;31.32;34.80
72716;BME280;60830;64.560;40.542;2022-07-10T09:47:42;101466.09;;;30.62;36.01
72716;BME280;60830;64.560;40.542;2022-07-10T09:50:32;101451.84;;;31.54;34.44
72716;BME280;60830;64.560;40.542;2022-07-10T09:53:01;101464.25;;;31.32;34.41
72716;BME280;60830;64.560;40.542;2022-07-10T09:55:31;101445.06;;;31.46;34.81
72716;BME280;60830;64.560;40.542;2022-07-10T09:58:02;101447.31;;;31.93;35.26
72716;BME280;60830;64.560;40.542;2022-07-10T10:00:30;101445.69;;;31.90;34.95
72716;BME280;60830;64.560;40.542;2022-07-10T10:02:59;101451.91;;;31.26;34.74
72716;BME280;60830;64.560;40.542;2022-07-10T10:05:53;101449.50;;;31.88;34.38
72716;BME280;60830;64.560;40.542;2022-07-10T10:08:25;101454.72;;;32.04;35.33
72716;BME280;60830;64.560;40.542;2022-07-10T10:10:52;101455.66;;;31.51;35.58
72716;BME280;60830;64.560;40.542;2022-07-10T10:13:22;101453.94;;;30.39;36.86
72716;BME280;60830;64.560;40.542;2022-07-10T10:15:50;101460.47;;;30.51;37.05
72716;BME280;60830;64.560;40.542;2022-07-10T10:18:22;101455.69;;;29.97;37.27
72716;BME280;60830;64.560;40.542;2022-07-10T10:20:49;101457.06;;;29.90;37.81
72716;BME280;60830;64.560;40.542;2022-07-10T10:23:19;101461.03;;;29.39;38.25
72716;BME280;60830;64.560;40.542;2022-07-10T10:25:55;101456.56;;;28.58;39.98
72716;BME280;60830;64.560;40.542;2022-07-10T10:28:24;101455.59;;;27.59;41.02
72716;BME280;60830;64.560;40.542;2022-07-10T10:30:59;101462.34;;;27.33;41.44
72716;BME280;60830;64.560;40.542;2022-07-10T10:35:59;101461.91;;;27.06;41.62
72716;BME280;60830;64.560;40.542;2022-07-10T10:41:25;101449.28;;;26.49;43.75
72716;BME280;60830;64.560;40.542;2022-07-10T10:46:35;101463.84;;;29.38;39.30
72716;BME280;60830;64.560;40.542;2022-07-10T10:49:07;101450.03;;;29.41;38.35
72716;BME280;60830;64.560;40.542;2022-07-10T10:54:25;101464.59;;;29.56;37.85
72716;BME280;60830;64.560;40.542;2022-07-10T10:57:12;101452.50;;;30.48;37.06
72716;BME280;60830;64.560;40.542;2022-07-10T10:59:51;101452.16;;;30.81;36.86
72716;BME280;60830;64.560;40.542;2022-07-10T11:02:31;101447.72;;;30.66;36.75
72716;BME280;60830;64.560;40.542;2022-07-10T11:08:02;101453.47;;;30.61;36.95
72716;BME280;60830;64.560;40.542;2022-07-10T11:13:10;101445.41;;;30.60;36.89
72716;BME280;60830;64.560;40.542;2022-07-10T11:15:41;101442.63;;;31.29;35.57
72716;BME280;60830;64.560;40.542;2022-07-10T11:18:11;101443.66;;;30.86;36.33
72716;BME280;60830;64.560;40.542;2022-07-10T11:20:41;101445.88;;;30.38;35.92
72716;BME280;60830;64.560;40.542;2022-07-10T11:26:03;101446.63;;;29.82;36.97
72716;BME280;60830;64.560;40.542;2022-07-10T11:28:55;101439.59;;;28.87;37.72
72716;BME280;60830;64.560;40.542;2022-07-10T11:31:25;101455.13;;;28.85;38.93
72716;BME280;60830;64.560;40.542;2022-07-10T11:33:54;101447.03;;;28.99;38.31
72716;BME280;60830;64.560;40.542;2022-07-10T11:36:25;101443.53;;;28.33;39.01
72716;BME280;60830;64.560;40.542;2022-07-10T11:39:06;101440.03;;;27.63;40.09
72716;BME280;60830;64.560;40.542;2022-07-10T11:41:34;101435.03;;;27.55;40.82
72716;BME280;60830;64.560;40.542;2022-07-10T11:44:15;101438.78;;;26.98;41.25
72716;BME280;60830;64.560;40.542;2022-07-10T11:46:47;101442.06;;;26.68;41.49
72716;BME280;60830;64.560;40.542;2022-07-10T11:49:16;101442.44;;;26.59;41.96
72716;BME280;60830;64.560;40.542;2022-07-10T11:51:43;101425.63;;;26.33;42.29
72716;BME280;60830;64.560;40.542;2022-07-10T11:54:12;101426.97;;;26.44;42.20
72716;BME280;60830;64.560;40.542;2022-07-10T11:56:46;101430.91;;;25.97;42.80
72716;BME280;60830;64.560;40.542;2022-07-10T11:59:14;101432.34;;;26.06;42.38
72716;BME280;60830;64.560;40.542;2022-07-10T12:01:49;101426.63;;;26.12;42.06
72716;BME280;60830;64.560;40.542;2022-07-10T12:04:18;101426.78;;;26.09;42.10
72716;BME280;60830;64.560;40.542;2022-07-10T12:06:46;101445.25;;;26.20;41.81
72716;BME280;60830;64.560;40.542;2022-07-10T12:09:15;101439.22;;;26.13;41.75
72716;BME280;60830;64.560;40.542;2022-07-10T12:11:44;101436.44;;;26.14;41.70
72716;BME280;60830;64.560;40.542;2022-07-10T12:14:18;101436.91;;;26.24;41.94
72716;BME280;60830;64.560;40.542;2022-07-10T12:16:48;101435.34;;;26.38;41.87
72716;BME280;60830;64.560;40.542;2022-07-10T12:19:16;101437.50;;;26.50;41.32
72716;BME280;60830;64.560;40.542;2022-07-10T12:21:46;101438.78;;;26.60;41.36
72716;BME280;60830;64.560;40.542;2022-07-10T12:24:15;101438.28;;;26.52;40.62
72716;BME280;60830;64.560;40.542;2022-07-10T12:26:43;101445.03;;;26.24;40.65
72716;BME280;60830;64.560;40.542;2022-07-10T12:29:21;101440.84;;;26.36;41.29
72716;BME280;60830;64.560;40.542;2022-07-10T12:31:50;101449.47;;;26.06;41.83
72716;BME280;60830;64.560;40.542;2022-07-10T12:34:17;101444.19;;;26.03;41.66
72716;BME280;60830;64.560;40.542;2022-07-10T12:36:49;101439.22;;;26.13;42.22
72716;BME280;60830;64.560;40.542;2022-07-10T12:39:21;101429.84;;;26.01;42.82
72716;BME280;60830;64.560;40.542;2022-07-10T12:41:58;101443.41;;;25.99;42.21
72716;BME280;60830;64.560;40.542;2022-07-10T12:44:35;101426.47;;;26.15;42.67
72716;BME280;60830;64.560;40.542;2022-07-10T12:47:09;101418.50;;;26.12;41.95
72716;BME280;60830;64.560;40.542;2022-07-10T12:50:04;101426.72;;;26.10;42.46
72716;BME280;60830;64.560;40.542;2022-07-10T12:52:33;101412.00;;;26.16;41.91
72716;BME280;60830;64.560;40.542;2022-07-10T12:55:17;101419.59;;;26.08;41.34
72716;BME280;60830;64.560;40.542;2022-07-10T12:58:06;101422.31;;;26.08;41.58
72716;BME280;60830;64.560;40.542;2022-07-10T13:00:36;101415.94;;;26.09;40.34
72716;BME280;60830;64.560;40.542;2022-07-10T13:03:04;101401.31;;;26.13;40.40
72716;BME280;60830;64.560;40.542;2022-07-10T13:05:39;101406.75;;;26.13;40.65
72716;BME280;60830;64.560;40.542;2022-07-10T13:08:17;101392.09;;;26.17;41.35
72716;BME280;60830;64.560;40.542;2022-07-10T13:10:48;101390.50;;;26.13;41.32
72716;BME280;60830;64.560;40.542;2022-07-10T13:13:15;101395.16;;;26.09;41.21
72716;BME280;60830;64.560;40.542;2022-07-10T13:15:45;101398.69;;;25.91;41.43
72716;BME280;60830;64.560;40.542;2022-07-10T13:18:25;101400.38;;;25.93;41.45